Winnemucca, NV

5:36 AM PDT on July 28, 2014 (GMT -0700)
Rome State (KREO) Elev 4049 ft | 42.59 °N, 117.86 °W | Change Station

Current weather conditions updated 44 minutes ago

Mostly Cloudy
Mostly Cloudy
62 °F
Feels Like 62 °F
N
5
Wind Variable Wind from SSE
Gusts 3 mph

Today is forecast to be Much Cooler than yesterday.

Today
High -- | Low -- °F
--% Chance of Precip.
Yesterday
High -- | Low -- °F
Precip. -- in
5:43 AM 8:11 PM
New Moon, 2% visible
Pressure 29.98 in
Visibility -9999.0 miles
Clouds
Dew Point 31 °F
Humidity 31%
Rainfall 0.00 in
Snow Depth Not available.
UV Not available.
Pollen 6.40 out of 12
Air Quality Not available.
Flu Activity Not available.
METAR KREO 281152Z AUTO 15004KT 17/M01 A3013 RMK AO1 SLP151 T01671006 10278 20167 53004

More Conditions Fewer Conditions

Pressure 29.98 in
Visibility -9999.0 miles
Clouds
Dew Point 31 °F
Humidity 31%
Rainfall 0.00 in
Snow Depth Not available.
UV Not available.
Pollen 6.40 out of 12
Air Quality Not available.
Flu Activity Not available.
METAR KREO 281152Z AUTO 15004KT 17/M01 A3013 RMK AO1 SLP151 T01671006 10278 20167 53004

More Conditions Fewer Conditions

10-Day Weather Forecast

Almanac

Astronomy

Jul. 28, 2014 Rise Set
Actual Time 5:43 AM PDT 8:11 PM PDT
Civil Twilight 5:11 AM PDT 8:42 PM PDT
Nautical Twilight 4:32 AM PDT 9:21 PM PDT
Astronomical Twilight 3:48 AM PDT 10:05 PM PDT
Moon 7:30 AM PDT 8:54 PM PDT
Length of Visible Light 15h 31m
Length of Day
14h 28m
Tomorrow will be 1m 58s shorter.
New Moon, 2% of the Moon is Illuminated
Today
New Moon
Aug 3
First Quarter
Aug 10
Full
Aug 17
Last Quarter
Aug 25
New

Today's Extremes

State Highs State Lows

Community

WunderPhotos

Upload Photos

1,738,311 photos uploaded!

Nearby

Snow Depth

Station Depth Elevation
Lamance Creek 1 in 6000 ft
Granite Peak 0 in 7800 ft
Buckskin Lower 3 in 6700 ft
Taylor Canyon 1 in 6200 ft
Jacks Peak 2 in 8420 ft

Earthquake Activity

City Distance Mag. Time & Date
Lakeview, Oregon 108 miles 2.6 11:54 PM PDT
2014-07-22
Lakeview, Oregon 109 miles 2.5 9:12 PM PDT
2014-07-22
Minimum magnitude displayed is 2.5.

Coastal Water Temperatures

Place Temperature
No Stations Reporting

Nearby Weather Stations

Station Location Temp. Heat Index Dew Point Humidity Wind Precip. Elev Updated Type
MesoWest TULE1 , Golconda, NV 67 °F - - - North  at  - 0.00 in / hr 4348 ft 4:00 AM PDT MADIS
MesoWest ROSECK , Winnemucca, NV 68 °F - - - North  at  - 0.00 in / hr 4298 ft 3:00 AM PDT MADIS
Nevada Desert, Winnemucca, NV 65.6 °F - 36 °F 33% ESE  at  1.0 mph 0.00 in / hr 4367 ft 5:36 AM PDT Rapid Fire
MesoWest RDHSE2 , Midas, NV 72 °F - - - North  at  - 0.00 in / hr 4366 ft 4:00 AM PDT MADIS
RAWS MOREY CREEK NV, 73 °F 76 °F 39 °F 29% NNW  at  7 mph 0.00 in / hr 5500 ft 7:37 AM EDT MADIS

Show More Stations Show Fewer Stations